Time;durP1;ratioP1;P1;durP2;ratioP2;P2;SDS_P1;SDS_P2;PMS_P1;PMS_P2;Temp;Humidity;BMP_temperature;BMP_pressure;BME280_temperature;BME280_humidity;BME280_pressure;Samples;Min_cycle;Max_cycle;Signal;HPM_P1;HPM_P2
2022/01/11 00:00:44;;;;;;;29.35;19.65;;;1.60;99.90;;;;;;5051332;28;20209;-57
2022/01/11 00:03:10;;;;;;;31.13;18.15;;;1.60;99.90;;;;;;5051520;28;20051;-57
2022/01/11 00:05:58;;;;;;;28.15;19.45;;;1.50;99.90;;;;;;5051542;28;20076;-56
2022/01/11 00:08:31;;;;;;;24.63;17.83;;;1.50;99.90;;;;;;5051440;28;20013;-56
2022/01/11 00:11:05;;;;;;;29.10;19.38;;;1.50;99.90;;;;;;5051454;28;20575;-54
2022/01/11 00:13:36;;;;;;;29.75;18.58;;;1.50;99.90;;;;;;5051310;28;20017;-57
2022/01/11 00:16:02;;;;;;;26.92;18.88;;;1.50;99.90;;;;;;5050657;28;20045;-57
2022/01/11 00:18:30;;;;;;;27.85;19.80;;;1.50;99.90;;;;;;5050884;28;20048;-57
2022/01/11 00:20:56;;;;;;;29.60;21.15;;;1.50;99.90;;;;;;5051277;28;20033;-55
2022/01/11 00:25:48;;;;;;;46.05;27.77;;;1.50;99.90;;;;;;5051118;28;20490;-58
2022/01/11 00:28:16;;;;;;;53.92;28.67;;;1.60;99.90;;;;;;5051452;28;20033;-57
2022/01/11 00:30:44;;;;;;;60.53;28.95;;;1.50;99.90;;;;;;5051139;28;20495;-56
2022/01/11 00:33:15;;;;;;;39.50;24.02;;;1.40;99.90;;;;;;5051375;28;20033;-57
2022/01/11 00:35:43;;;;;;;35.33;21.98;;;1.50;99.90;;;;;;5051111;28;20439;-55
2022/01/11 00:38:17;;;;;;;45.00;23.75;;;1.50;99.90;;;;;;5051051;28;20025;-56
2022/01/11 00:40:57;;;;;;;48.63;25.00;;;1.40;99.90;;;;;;5051183;28;20024;-56
2022/01/11 00:43:25;;;;;;;34.78;20.27;;;1.40;99.90;;;;;;5051315;28;20121;-55
2022/01/11 00:45:52;;;;;;;33.30;19.65;;;1.50;99.90;;;;;;5051174;28;20056;-53
2022/01/11 00:48:18;;;;;;;29.75;19.10;;;1.60;99.90;;;;;;5051198;28;20025;-57
2022/01/11 00:50:44;;;;;;;29.52;19.77;;;1.60;99.90;;;;;;5050736;28;20055;-55
2022/01/11 00:53:10;;;;;;;27.42;18.38;;;1.70;99.90;;;;;;5049890;28;20033;-56
2022/01/11 00:55:38;;;;;;;31.05;19.08;;;1.70;99.90;;;;;;5050871;28;20096;-55
2022/01/11 00:58:04;;;;;;;25.98;18.88;;;1.70;99.90;;;;;;5051201;28;20013;-55
2022/01/11 01:00:31;;;;;;;38.03;24.15;;;1.60;99.90;;;;;;5050923;28;20028;-55
2022/01/11 01:02:57;;;;;;;49.28;26.92;;;1.60;99.90;;;;;;5054374;28;20372;-56
2022/01/11 01:05:22;;;;;;;42.58;23.70;;;1.50;99.90;;;;;;5054662;28;20033;-55
2022/01/11 01:07:49;;;;;;;37.97;22.80;;;1.50;99.90;;;;;;5054478;28;20032;-56
2022/01/11 01:10:25;;;;;;;42.10;24.67;;;1.40;99.90;;;;;;5054755;28;20094;-55
2022/01/11 01:12:56;;;;;;;35.25;23.30;;;1.40;99.90;;;;;;5054649;28;20472;-56
2022/01/11 01:15:22;;;;;;;39.70;23.45;;;1.40;99.90;;;;;;5054422;28;20049;-55
2022/01/11 01:17:48;;;;;;;39.53;21.48;;;1.40;99.90;;;;;;5054353;28;20090;-56
2022/01/11 01:20:14;;;;;;;36.95;22.75;;;1.40;99.90;;;;;;5054555;28;20074;-54
2022/01/11 01:22:40;;;;;;;34.33;22.92;;;1.40;99.90;;;;;;5054229;28;20029;-54
2022/01/11 01:25:07;;;;;;;44.65;25.85;;;1.40;99.90;;;;;;5054477;28;20044;-56
2022/01/11 01:27:34;;;;;;;36.65;22.83;;;1.40;99.90;;;;;;5054302;28;20040;-54
2022/01/11 01:29:59;;;;;;;33.72;21.75;;;1.40;99.90;;;;;;5054257;28;20029;-54
2022/01/11 01:32:25;;;;;;;38.97;21.52;;;1.30;99.90;;;;;;5054235;28;20033;-56
2022/01/11 01:34:52;;;;;;;40.35;21.10;;;1.30;99.90;;;;;;5052720;28;20068;-55
2022/01/11 01:37:18;;;;;;;37.92;21.38;;;1.40;99.90;;;;;;5054144;28;20085;-56
2022/01/11 01:39:44;;;;;;;40.25;25.00;;;1.40;99.90;;;;;;5054151;28;20029;-55
2022/01/11 01:42:11;;;;;;;43.72;23.98;;;1.30;99.90;;;;;;5054132;28;20056;-55
2022/01/11 01:44:40;;;;;;;42.38;23.73;;;1.40;99.90;;;;;;5053951;28;20025;-56
2022/01/11 01:47:07;;;;;;;43.35;23.88;;;1.40;99.90;;;;;;5054127;28;20024;-56
2022/01/11 01:49:35;;;;;;;40.45;22.65;;;1.40;99.90;;;;;;5053751;28;20105;-54
2022/01/11 01:52:00;;;;;;;40.92;21.65;;;1.40;99.90;;;;;;5054003;28;20066;-56
2022/01/11 01:54:27;;;;;;;39.03;23.02;;;1.40;99.90;;;;;;5053632;28;20119;-56
2022/01/11 01:56:53;;;;;;;38.42;22.48;;;1.40;99.90;;;;;;5053726;28;20581;-56
2022/01/11 01:59:19;;;;;;;34.67;21.52;;;1.30;99.90;;;;;;5053664;28;20061;-55
2022/01/11 02:01:47;;;;;;;36.28;22.00;;;1.30;99.90;;;;;;5053390;28;20029;-56
2022/01/11 02:04:16;;;;;;;30.50;21.20;;;1.30;99.90;;;;;;5053877;28;20033;-57
2022/01/11 02:06:41;;;;;;;35.30;20.95;;;1.30;99.90;;;;;;5053602;28;20395;-56
2022/01/11 02:09:08;;;;;;;30.85;20.77;;;1.40;99.90;;;;;;5053645;28;20017;-56
2022/01/11 02:11:34;;;;;;;30.30;20.25;;;1.50;99.90;;;;;;5053292;28;20024;-56
2022/01/11 02:13:59;;;;;;;26.98;20.20;;;1.40;99.90;;;;;;5053049;28;20017;-56
2022/01/11 02:16:25;;;;;;;29.73;20.70;;;1.40;99.90;;;;;;5053410;28;20029;-57
2022/01/11 02:18:52;;;;;;;35.70;22.40;;;1.40;99.90;;;;;;5053430;28;20025;-54
2022/01/11 02:21:19;;;;;;;30.77;19.42;;;1.40;99.90;;;;;;5053551;28;20380;-56
2022/01/11 02:23:45;;;;;;;29.80;21.75;;;1.40;99.90;;;;;;5053195;28;20427;-55
2022/01/11 02:26:11;;;;;;;34.10;22.65;;;1.40;99.90;;;;;;5053402;28;20075;-55
2022/01/11 02:28:37;;;;;;;31.52;20.00;;;1.40;99.90;;;;;;5053075;28;20379;-56
2022/01/11 02:31:07;;;;;;;34.78;21.98;;;1.40;99.90;;;;;;5051875;28;20039;-54
2022/01/11 02:33:36;;;;;;;38.20;21.85;;;1.40;99.90;;;;;;5052944;28;20108;-55
2022/01/11 02:36:05;;;;;;;33.13;21.73;;;1.40;99.90;;;;;;5053183;28;20025;-55
2022/01/11 02:38:31;;;;;;;36.47;21.95;;;1.30;99.90;;;;;;5052920;28;20357;-56
2022/01/11 02:40:58;;;;;;;32.42;22.08;;;1.30;99.90;;;;;;5052925;28;20079;-56
2022/01/11 02:43:25;;;;;;;31.40;21.75;;;1.30;99.90;;;;;;5052997;28;20369;-57
2022/01/11 02:45:50;;;;;;;37.42;23.08;;;1.30;99.90;;;;;;5052798;28;20029;-53
2022/01/11 02:48:17;;;;;;;29.42;20.98;;;1.30;99.90;;;;;;5053080;28;20082;-56
2022/01/11 02:50:45;;;;;;;32.15;19.75;;;1.30;99.90;;;;;;5052624;28;20372;-57
2022/01/11 02:53:12;;;;;;;32.78;22.08;;;1.30;99.90;;;;;;5052726;28;20025;-57
2022/01/11 02:55:40;;;;;;;33.38;23.73;;;1.30;99.90;;;;;;5052320;28;20040;-55
2022/01/11 02:58:06;;;;;;;32.53;22.20;;;1.30;99.90;;;;;;5052827;28;20065;-55
2022/01/11 03:00:39;;;;;;;28.73;20.30;;;1.30;99.90;;;;;;5052400;28;20425;-56
2022/01/11 03:03:22;;;;;;;31.13;19.15;;;1.30;99.90;;;;;;5052461;28;20456;-56
2022/01/11 03:05:51;;;;;;;26.90;18.88;;;1.20;99.90;;;;;;5052345;28;20083;-55
2022/01/11 03:08:18;;;;;;;28.00;19.95;;;1.20;99.90;;;;;;5052475;28;20040;-56
2022/01/11 03:10:46;;;;;;;36.80;21.30;;;1.20;99.90;;;;;;5051053;28;20025;-54
2022/01/11 03:13:14;;;;;;;28.55;19.55;;;1.30;99.90;;;;;;5052269;28;20037;-55
2022/01/11 03:15:40;;;;;;;32.55;21.02;;;1.30;99.90;;;;;;5051976;28;20041;-55
2022/01/11 03:18:06;;;;;;;28.75;20.48;;;1.30;99.90;;;;;;5052401;28;20419;-56
2022/01/11 03:20:33;;;;;;;33.08;20.63;;;1.30;99.90;;;;;;5052030;28;20021;-56
2022/01/11 03:22:59;;;;;;;32.28;20.23;;;1.30;99.90;;;;;;5052414;28;20063;-55
2022/01/11 03:25:25;;;;;;;33.55;22.00;;;1.30;99.90;;;;;;5051447;28;20072;-55
2022/01/11 03:27:51;;;;;;;32.28;21.38;;;1.30;99.90;;;;;;5051983;28;20107;-55
2022/01/11 03:30:17;;;;;;;29.83;19.42;;;1.30;99.90;;;;;;5052174;28;20040;-57
2022/01/11 03:32:43;;;;;;;28.52;19.45;;;1.30;99.90;;;;;;5051877;28;20040;-53
2022/01/11 03:35:10;;;;;;;30.75;21.20;;;1.30;99.90;;;;;;5051960;28;20642;-55
2022/01/11 03:37:36;;;;;;;29.58;19.60;;;1.30;99.90;;;;;;5051827;28;20032;-54
2022/01/11 03:40:05;;;;;;;31.17;20.80;;;1.20;99.90;;;;;;5051973;28;20089;-54
2022/01/11 03:42:31;;;;;;;30.40;19.90;;;1.20;99.90;;;;;;5051701;28;20028;-54
2022/01/11 03:44:56;;;;;;;29.95;20.35;;;1.20;99.90;;;;;;5051702;28;20044;-57
2022/01/11 03:47:22;;;;;;;30.38;20.83;;;1.20;99.90;;;;;;5051647;28;20032;-55
2022/01/11 03:49:48;;;;;;;29.33;21.13;;;1.20;99.90;;;;;;5051266;28;20028;-55
2022/01/11 03:52:14;;;;;;;27.58;18.88;;;1.20;99.90;;;;;;5051886;28;20024;-54
2022/01/11 03:55:01;;;;;;;29.23;20.63;;;1.20;99.90;;;;;;5051497;28;20456;-53
2022/01/11 03:57:30;;;;;;;23.98;17.83;;;1.20;99.90;;;;;;5051669;28;20107;-55
2022/01/11 03:59:58;;;;;;;28.90;18.90;;;1.20;99.90;;;;;;5051645;28;20028;-56
2022/01/11 04:02:24;;;;;;;26.90;18.60;;;1.20;99.90;;;;;;5050416;28;20021;-53
2022/01/11 04:04:53;;;;;;;27.70;17.92;;;1.20;99.90;;;;;;5050188;28;20039;-57
2022/01/11 04:07:21;;;;;;;26.23;19.02;;;1.20;99.90;;;;;;5051558;28;20087;-57
2022/01/11 04:09:47;;;;;;;28.08;18.40;;;1.20;99.90;;;;;;5051297;28;20473;-55
2022/01/11 04:12:14;;;;;;;27.48;18.60;;;1.20;99.90;;;;;;5051655;28;20372;-55
2022/01/11 04:14:40;;;;;;;30.73;18.55;;;1.20;99.90;;;;;;5051049;28;20052;-55
2022/01/11 04:17:05;;;;;;;30.35;19.00;;;1.20;99.90;;;;;;5051445;28;20025;-56
2022/01/11 04:19:37;;;;;;;27.33;18.33;;;1.20;99.90;;;;;;5051555;28;20025;-56
2022/01/11 04:22:03;;;;;;;27.83;17.42;;;1.10;99.90;;;;;;5051535;28;20452;-56
2022/01/11 04:24:29;;;;;;;27.33;18.25;;;1.20;99.90;;;;;;5051337;28;20089;-56
2022/01/11 04:26:55;;;;;;;29.50;20.40;;;1.20;99.90;;;;;;5051303;28;20026;-56
2022/01/11 04:29:22;;;;;;;28.23;18.67;;;1.20;99.90;;;;;;5051307;28;20070;-56
2022/01/11 04:31:48;;;;;;;32.88;20.10;;;1.20;99.90;;;;;;5051130;28;20142;-57
2022/01/11 04:34:13;;;;;;;27.27;18.88;;;1.30;99.90;;;;;;5051310;28;20029;-54
2022/01/11 04:36:40;;;;;;;25.95;17.67;;;1.30;99.90;;;;;;5052536;28;20021;-55
2022/01/11 04:39:09;;;;;;;25.05;18.38;;;1.30;99.90;;;;;;5055427;28;20021;-56
2022/01/11 04:41:36;;;;;;;25.40;16.70;;;1.40;99.90;;;;;;5055118;28;20104;-54
2022/01/11 04:44:03;;;;;;;21.67;16.88;;;1.40;99.90;;;;;;5055126;28;20037;-54
2022/01/11 04:46:29;;;;;;;21.65;16.60;;;1.30;99.90;;;;;;5055076;28;20025;-56
2022/01/11 04:48:55;;;;;;;26.63;18.48;;;1.30;99.90;;;;;;5055062;28;20341;-56
2022/01/11 04:51:22;;;;;;;25.25;17.50;;;1.30;99.90;;;;;;5055133;28;20037;-54
2022/01/11 04:53:48;;;;;;;26.42;17.45;;;1.30;99.90;;;;;;5055034;28;20064;-56
2022/01/11 04:56:14;;;;;;;25.67;17.33;;;1.30;99.90;;;;;;5054861;28;20024;-57
2022/01/11 04:58:40;;;;;;;23.92;15.77;;;1.30;99.90;;;;;;5053387;28;20024;-57
2022/01/11 05:01:06;;;;;;;25.42;17.05;;;1.30;99.90;;;;;;5054837;28;20453;-55
2022/01/11 05:03:38;;;;;;;27.38;19.10;;;1.30;99.90;;;;;;5054707;28;20032;-56
2022/01/11 05:06:07;;;;;;;31.13;17.42;;;1.20;99.90;;;;;;5054838;28;20045;-54
2022/01/11 05:08:33;;;;;;;25.60;18.23;;;1.20;99.90;;;;;;5054673;28;20406;-55
2022/01/11 05:10:58;;;;;;;32.33;18.38;;;1.20;99.90;;;;;;5054577;28;20029;-55
2022/01/11 05:13:24;;;;;;;24.92;16.92;;;1.20;99.90;;;;;;5054519;28;20031;-54
2022/01/11 05:15:50;;;;;;;23.00;17.38;;;1.20;99.90;;;;;;5054437;28;20102;-56
2022/01/11 05:18:16;;;;;;;25.70;16.02;;;1.20;99.90;;;;;;5054585;28;20511;-55
2022/01/11 05:20:42;;;;;;;23.63;17.23;;;1.20;99.90;;;;;;5052949;28;20025;-56
2022/01/11 05:23:09;;;;;;;29.35;17.17;;;1.20;99.90;;;;;;5054388;28;20505;-57
2022/01/11 05:25:35;;;;;;;23.27;16.33;;;1.20;99.90;;;;;;5053993;28;20060;-56
2022/01/11 05:28:00;;;;;;;30.60;18.83;;;1.20;99.90;;;;;;5054044;28;20024;-56
2022/01/11 05:30:27;;;;;;;22.95;16.63;;;1.20;99.90;;;;;;5054354;28;20484;-56
2022/01/11 05:32:53;;;;;;;22.00;15.15;;;1.20;99.90;;;;;;5053363;28;20025;-53
2022/01/11 05:35:21;;;;;;;29.83;17.98;;;1.20;99.90;;;;;;5052941;28;20032;-57
2022/01/11 05:37:48;;;;;;;23.73;16.45;;;1.20;99.90;;;;;;5052691;28;20021;-57
2022/01/11 05:40:15;;;;;;;25.38;16.73;;;1.20;99.90;;;;;;5051379;28;20383;-57
2022/01/11 05:42:42;;;;;;;23.98;17.42;;;1.20;99.90;;;;;;5051436;28;20017;-57
2022/01/11 05:45:09;;;;;;;29.75;18.05;;;1.20;99.90;;;;;;5052045;28;20042;-56
2022/01/11 05:47:36;;;;;;;25.98;17.08;;;1.20;99.90;;;;;;5051530;28;20224;-55
2022/01/11 05:50:07;;;;;;;27.80;16.73;;;1.20;99.90;;;;;;5052288;28;20029;-57
2022/01/11 05:52:34;;;;;;;31.67;18.95;;;1.20;99.90;;;;;;5052304;28;20021;-55
2022/01/11 05:55:00;;;;;;;24.40;16.77;;;1.10;99.90;;;;;;5052284;28;20036;-56
2022/01/11 05:57:26;;;;;;;27.02;17.80;;;1.10;99.90;;;;;;5052607;28;20025;-56
2022/01/11 05:59:52;;;;;;;25.88;17.77;;;1.20;99.90;;;;;;5051766;28;20021;-58
2022/01/11 06:02:17;;;;;;;30.88;18.00;;;1.20;99.90;;;;;;5052574;28;20048;-57
2022/01/11 06:04:43;;;;;;;25.27;15.85;;;1.20;99.90;;;;;;5052319;28;20509;-57
2022/01/11 06:07:09;;;;;;;24.55;16.60;;;1.20;99.90;;;;;;5052509;28;20057;-56
2022/01/11 06:09:34;;;;;;;23.58;16.73;;;1.30;99.90;;;;;;5052225;28;20055;-56
2022/01/11 06:12:00;;;;;;;26.80;17.25;;;1.30;99.90;;;;;;5052156;28;20045;-56
2022/01/11 06:14:26;;;;;;;27.65;17.15;;;1.20;99.90;;;;;;5051866;28;20071;-57
2022/01/11 06:16:51;;;;;;;25.40;16.92;;;1.30;99.90;;;;;;5052186;28;20527;-55
2022/01/11 06:19:17;;;;;;;36.75;21.23;;;1.30;99.90;;;;;;5052244;28;20013;-56
2022/01/11 06:21:43;;;;;;;35.28;18.83;;;1.30;99.90;;;;;;5051943;28;20024;-56
2022/01/11 06:24:09;;;;;;;29.05;18.52;;;1.30;99.90;;;;;;5052046;28;20029;-55
2022/01/11 06:26:34;;;;;;;28.45;19.48;;;1.30;99.90;;;;;;5051944;28;20027;-55
2022/01/11 06:29:02;;;;;;;23.05;17.55;;;1.30;99.90;;;;;;5052052;28;20056;-56
2022/01/11 06:31:29;;;;;;;21.65;17.27;;;1.40;99.90;;;;;;5051904;28;20464;-56
2022/01/11 06:33:55;;;;;;;26.30;18.98;;;1.50;99.90;;;;;;5051870;28;20021;-54
2022/01/11 06:36:21;;;;;;;25.50;16.02;;;1.50;99.90;;;;;;5051830;28;20178;-57
2022/01/11 06:38:47;;;;;;;25.92;18.90;;;1.50;99.90;;;;;;5051551;28;20112;-53
2022/01/11 06:41:13;;;;;;;23.25;17.00;;;1.50;99.90;;;;;;5051780;28;20221;-56
2022/01/11 06:43:40;;;;;;;25.77;17.55;;;1.50;99.90;;;;;;5051571;28;20018;-56
2022/01/11 06:46:06;;;;;;;27.70;19.23;;;1.40;99.90;;;;;;5051805;28;20036;-57
2022/01/11 06:48:32;;;;;;;31.85;24.35;;;1.40;99.90;;;;;;5051490;28;20025;-57
2022/01/11 06:50:58;;;;;;;26.35;19.75;;;1.40;99.90;;;;;;5051398;28;20033;-57
2022/01/11 06:53:24;;;;;;;26.48;18.15;;;1.40;99.90;;;;;;5051451;28;20033;-57
2022/01/11 06:55:53;;;;;;;26.25;17.92;;;1.30;99.90;;;;;;5050199;28;20028;-57
2022/01/11 06:58:19;;;;;;;27.75;17.33;;;1.30;99.90;;;;;;5051294;28;20057;-57
2022/01/11 07:00:45;;;;;;;28.52;18.73;;;1.30;99.90;;;;;;5050773;28;20315;-57
2022/01/11 07:03:11;;;;;;;29.75;20.25;;;1.30;99.90;;;;;;5051390;28;20457;-55
2022/01/11 07:05:37;;;;;;;28.50;19.80;;;1.30;99.90;;;;;;5051052;28;20078;-57
2022/01/11 07:08:03;;;;;;;31.05;18.83;;;1.30;99.90;;;;;;5051134;28;20510;-58
2022/01/11 07:10:29;;;;;;;33.58;22.05;;;1.30;99.90;;;;;;5049892;28;20029;-57
2022/01/11 07:12:55;;;;;;;25.35;18.27;;;1.30;99.90;;;;;;5051104;28;20078;-57
2022/01/11 07:15:21;;;;;;;27.92;18.70;;;1.40;99.90;;;;;;5050902;28;20041;-55
2022/01/11 07:17:48;;;;;;;31.50;20.85;;;1.40;99.90;;;;;;5051039;28;20028;-56
2022/01/11 07:20:13;;;;;;;30.00;21.77;;;1.50;99.90;;;;;;5050988;28;20017;-56
2022/01/11 07:22:39;;;;;;;29.48;20.58;;;1.40;99.90;;;;;;5049586;28;20025;-57
2022/01/11 07:25:06;;;;;;;34.17;23.63;;;1.40;99.90;;;;;;5050862;28;20198;-55
2022/01/11 07:27:33;;;;;;;45.88;27.30;;;1.40;99.90;;;;;;5050796;28;20025;-55
2022/01/11 07:30:00;;;;;;;37.70;24.38;;;1.40;99.90;;;;;;5051014;28;20388;-55
2022/01/11 07:32:26;;;;;;;42.47;24.08;;;1.30;99.90;;;;;;5050772;28;20033;-56
2022/01/11 07:34:52;;;;;;;35.05;23.42;;;1.30;99.90;;;;;;5049488;28;20020;-55
2022/01/11 07:37:18;;;;;;;33.80;21.58;;;1.30;99.90;;;;;;5050549;28;20363;-52
2022/01/11 07:39:44;;;;;;;31.83;20.60;;;1.40;99.90;;;;;;5050607;28;20023;-56
2022/01/11 07:42:10;;;;;;;36.15;21.02;;;1.40;99.90;;;;;;5050671;28;20023;-55
2022/01/11 07:44:36;;;;;;;34.17;23.02;;;1.40;99.90;;;;;;5050573;28;20025;-55
2022/01/11 07:47:03;;;;;;;31.40;21.20;;;1.50;99.90;;;;;;5047152;28;20571;-57
2022/01/11 07:49:29;;;;;;;33.83;21.05;;;1.50;99.90;;;;;;5030381;28;20025;-57
2022/01/11 07:51:55;;;;;;;28.67;19.58;;;1.60;99.90;;;;;;5030687;28;20024;-55
2022/01/11 07:54:21;;;;;;;28.65;18.27;;;1.60;99.90;;;;;;5030451;28;20029;-56
2022/01/11 07:56:47;;;;;;;25.98;19.60;;;1.60;99.90;;;;;;5030595;28;20101;-55
2022/01/11 07:59:13;;;;;;;28.95;19.85;;;1.60;99.90;;;;;;5030444;28;20022;-57
2022/01/11 08:01:39;;;;;;;37.00;24.17;;;1.60;99.90;;;;;;5029067;28;20036;-57
2022/01/11 08:04:05;;;;;;;33.60;23.70;;;1.60;99.90;;;;;;5030526;28;20105;-57
2022/01/11 08:06:32;;;;;;;32.05;21.70;;;1.70;99.90;;;;;;5030463;28;20435;-57
2022/01/11 08:08:59;;;;;;;29.75;22.00;;;1.80;99.90;;;;;;5030341;28;20075;-55
2022/01/11 08:11:25;;;;;;;29.65;20.77;;;1.80;99.90;;;;;;5030152;28;20055;-57
2022/01/11 08:13:51;;;;;;;30.25;21.52;;;1.90;99.90;;;;;;5030192;28;20030;-54
2022/01/11 08:16:16;;;;;;;31.85;19.45;;;1.90;99.90;;;;;;5030104;28;20041;-57
2022/01/11 08:18:42;;;;;;;29.13;18.95;;;1.90;99.90;;;;;;5030543;28;20026;-55
2022/01/11 08:21:08;;;;;;;24.42;17.45;;;2.00;99.90;;;;;;5030148;28;20025;-54
2022/01/11 08:23:33;;;;;;;26.63;18.25;;;2.10;99.90;;;;;;5030279;28;20212;-56
2022/01/11 08:25:59;;;;;;;26.52;17.48;;;2.00;99.90;;;;;;5030341;28;20432;-57
2022/01/11 08:28:25;;;;;;;28.23;17.95;;;2.00;99.90;;;;;;5030200;28;20102;-57
2022/01/11 08:30:52;;;;;;;28.95;18.25;;;2.00;99.90;;;;;;5029988;28;20032;-58
2022/01/11 08:33:17;;;;;;;27.55;19.65;;;2.00;99.90;;;;;;5030043;28;20061;-56
2022/01/11 08:35:43;;;;;;;28.95;20.27;;;2.10;99.90;;;;;;5028360;28;20118;-57
2022/01/11 08:38:10;;;;;;;27.15;20.40;;;2.10;99.90;;;;;;5029861;28;20485;-55
2022/01/11 08:40:36;;;;;;;31.10;19.95;;;2.10;99.90;;;;;;5029749;28;20045;-57
2022/01/11 08:43:04;;;;;;;26.70;19.67;;;2.10;99.90;;;;;;5028787;28;20021;-58
2022/01/11 08:45:31;;;;;;;26.52;18.10;;;2.20;99.90;;;;;;5029906;28;20025;-56
2022/01/11 08:47:57;;;;;;;27.27;19.10;;;2.20;99.90;;;;;;5030032;28;20029;-57
2022/01/11 08:50:22;;;;;;;28.75;18.45;;;2.30;99.90;;;;;;5029994;28;20029;-56
2022/01/11 08:52:49;;;;;;;23.40;17.23;;;2.30;99.90;;;;;;5029660;28;20026;-56
2022/01/11 08:55:16;;;;;;;19.40;15.20;;;2.20;99.90;;;;;;5029947;28;20025;-56
2022/01/11 08:57:42;;;;;;;20.48;15.30;;;2.20;99.90;;;;;;5029849;28;20432;-55
2022/01/11 09:00:16;;;;;;;19.58;14.88;;;2.20;99.90;;;;;;5029929;28;20092;-54
2022/01/11 09:02:42;;;;;;;33.30;21.98;;;2.20;99.90;;;;;;5029870;28;20018;-56
2022/01/11 09:05:08;;;;;;;20.30;16.45;;;2.10;99.90;;;;;;5028657;28;20029;-55
2022/01/11 09:07:33;;;;;;;22.35;16.17;;;2.20;99.90;;;;;;5029663;28;20414;-57
2022/01/11 09:09:59;;;;;;;26.05;16.65;;;2.10;99.90;;;;;;5029958;28;20021;-55
2022/01/11 09:12:25;;;;;;;22.73;14.18;;;2.20;99.90;;;;;;5029878;28;20288;-56
2022/01/11 09:14:50;;;;;;;99.45;69.30;;;2.10;99.90;;;;;;5029453;28;20048;-57
2022/01/11 09:17:16;;;;;;;39.90;31.52;;;2.10;99.90;;;;;;5029848;28;20029;-54
2022/01/11 09:19:42;;;;;;;85.40;56.72;;;2.20;99.90;;;;;;5029564;28;20025;-56
2022/01/11 09:22:08;;;;;;;119.57;65.65;;;2.20;99.90;;;;;;5030311;28;20403;-57
2022/01/11 09:24:49;;;;;;;166.57;87.80;;;2.20;99.90;;;;;;5033214;28;20026;-55
2022/01/11 09:27:15;;;;;;;116.10;75.03;;;2.20;99.90;;;;;;5033325;28;20353;-57
2022/01/11 09:29:41;;;;;;;142.05;103.10;;;2.30;99.90;;;;;;5033091;28;20025;-57
2022/01/11 09:32:08;;;;;;;114.00;82.72;;;2.30;99.90;;;;;;5033518;28;20060;-56
2022/01/11 09:34:37;;;;;;;53.45;39.10;;;2.40;99.90;;;;;;5032913;28;20021;-54
2022/01/11 09:37:03;;;;;;;31.30;22.55;;;2.60;99.90;;;;;;5033215;28;20380;-57
2022/01/11 09:39:29;;;;;;;13.55;11.70;;;3.40;99.90;;;;;;5032998;28;20451;-55
2022/01/11 09:41:58;;;;;;;14.98;12.23;;;4.40;99.90;;;;;;5032801;28;20117;-55
2022/01/11 09:44:24;;;;;;;14.48;9.85;;;5.90;99.90;;;;;;5033166;28;20060;-58
2022/01/11 09:46:50;;;;;;;12.75;9.85;;;7.00;97.00;;;;;;5032839;28;20152;-57
2022/01/11 09:49:15;;;;;;;12.02;9.85;;;7.70;94.90;;;;;;5032795;28;20109;-57
2022/01/11 09:51:41;;;;;;;11.38;8.98;;;8.90;91.80;;;;;;5032865;28;20021;-57
2022/01/11 09:54:08;;;;;;;12.32;9.18;;;9.90;84.90;;;;;;5032840;28;20504;-58
2022/01/11 09:56:38;;;;;;;11.48;8.60;;;10.00;81.90;;;;;;5032665;28;20443;-58
2022/01/11 09:59:04;;;;;;;11.25;9.68;;;9.80;80.60;;;;;;5032768;28;20037;-58
2022/01/11 10:01:30;;;;;;;12.43;8.88;;;10.20;75.80;;;;;;5032453;28;20381;-58
2022/01/11 10:04:06;;;;;;;11.18;9.63;;;10.30;75.90;;;;;;5031251;28;20032;-58
2022/01/11 10:06:37;;;;;;;12.15;9.02;;;11.10;73.50;;;;;;5032355;28;20038;-54
2022/01/11 10:09:18;;;;;;;16.48;10.77;;;10.80;70.70;;;;;;5032327;28;20022;-57
2022/01/11 10:11:56;;;;;;;14.73;9.70;;;10.60;72.70;;;;;;5032433;28;20409;-58
2022/01/11 10:14:34;;;;;;;10.57;8.40;;;10.90;70.80;;;;;;5032295;28;20048;-56
2022/01/11 10:17:19;;;;;;;10.48;8.98;;;11.10;66.60;;;;;;5032251;28;20408;-57
2022/01/11 10:20:09;;;;;;;26.58;23.90;;;11.40;66.20;;;;;;5032187;28;20104;-57
2022/01/11 10:22:54;;;;;;;26.13;17.63;;;10.70;67.40;;;;;;5031791;28;20037;-57
2022/01/11 10:25:21;;;;;;;14.07;11.55;;;11.30;67.30;;;;;;5030900;28;20535;-58
2022/01/11 10:27:59;;;;;;;11.07;9.43;;;12.30;63.20;;;;;;5031918;28;20072;-57
2022/01/11 10:30:26;;;;;;;13.30;10.82;;;12.40;61.80;;;;;;5032082;28;20087;-57
2022/01/11 10:32:57;;;;;;;13.88;10.65;;;11.70;64.30;;;;;;5031987;28;20083;-58
2022/01/11 10:35:31;;;;;;;14.25;10.10;;;12.50;62.40;;;;;;5031976;28;20397;-58
2022/01/11 10:38:00;;;;;;;12.30;10.00;;;12.10;62.20;;;;;;5030790;28;20087;-58
2022/01/11 10:40:34;;;;;;;11.98;9.07;;;11.30;62.80;;;;;;5031822;28;20496;-57
2022/01/11 10:43:20;;;;;;;12.35;9.70;;;10.70;66.90;;;;;;5031926;28;20018;-58
2022/01/11 10:45:48;;;;;;;11.15;9.18;;;10.40;66.80;;;;;;5031675;28;20086;-57
2022/01/11 10:48:17;;;;;;;19.30;10.88;;;10.10;68.60;;;;;;5031024;28;20024;-58
2022/01/11 10:50:50;;;;;;;9.88;8.20;;;9.90;69.40;;;;;;5031381;28;20112;-57
2022/01/11 10:53:24;;;;;;;11.27;9.25;;;9.60;68.80;;;;;;5031491;28;20025;-58
2022/01/11 10:55:55;;;;;;;13.35;10.05;;;9.00;70.90;;;;;;5031395;28;20331;-58
2022/01/11 10:58:22;;;;;;;15.50;9.90;;;7.90;73.90;;;;;;5031696;28;20452;-57
2022/01/11 11:00:52;;;;;;;12.93;10.65;;;7.60;77.60;;;;;;5031275;28;20029;-53
2022/01/11 11:03:24;;;;;;;13.43;9.60;;;8.00;77.70;;;;;;5031416;28;20426;-58
2022/01/11 11:05:55;;;;;;;12.68;9.60;;;9.40;76.00;;;;;;5031446;28;20503;-57
2022/01/11 11:08:35;;;;;;;12.77;9.48;;;9.80;74.20;;;;;;5030166;28;20547;-58
2022/01/11 11:11:11;;;;;;;14.38;9.75;;;9.80;73.30;;;;;;5031355;28;20139;-58
2022/01/11 11:13:45;;;;;;;12.25;9.48;;;11.20;71.70;;;;;;5031138;28;20121;-56
2022/01/11 11:16:12;;;;;;;12.57;9.50;;;11.60;69.10;;;;;;5031387;28;20104;-56
2022/01/11 11:18:41;;;;;;;15.85;10.27;;;11.00;67.90;;;;;;5030933;28;20014;-58
2022/01/11 11:21:27;;;;;;;23.38;14.30;;;10.30;70.10;;;;;;5031277;28;20021;-57
2022/01/11 11:24:14;;;;;;;22.88;16.83;;;9.70;72.70;;;;;;5031079;28;20045;-57
2022/01/11 11:26:46;;;;;;;15.65;9.75;;;9.50;70.70;;;;;;5031034;28;20052;-57
2022/01/11 11:29:13;;;;;;;13.60;10.75;;;8.80;73.60;;;;;;5030987;28;20029;-56
2022/01/11 11:31:39;;;;;;;15.10;10.23;;;7.70;76.70;;;;;;5030675;28;20055;-58
2022/01/11 11:34:09;;;;;;;16.20;12.05;;;6.40;80.50;;;;;;5030868;28;20029;-55
2022/01/11 11:36:41;;;;;;;17.88;11.25;;;5.90;86.60;;;;;;5030678;28;20028;-55
2022/01/11 11:39:23;;;;;;;20.95;13.48;;;5.50;91.90;;;;;;5030932;28;20025;-56
2022/01/11 11:41:54;;;;;;;17.45;12.30;;;5.20;93.10;;;;;;5030688;28;20032;-56
2022/01/11 11:44:24;;;;;;;16.65;11.82;;;5.00;95.30;;;;;;5030792;28;20028;-56
2022/01/11 11:46:56;;;;;;;17.52;12.02;;;4.80;97.70;;;;;;5030192;28;20032;-56
2022/01/11 11:49:47;;;;;;;26.15;12.57;;;4.60;99.30;;;;;;5029302;28;20026;-54
2022/01/11 11:52:20;;;;;;;17.17;12.15;;;4.60;99.90;;;;;;5030700;28;20384;-57
2022/01/11 11:55:02;;;;;;;18.77;10.50;;;4.60;99.90;;;;;;5030459;28;20426;-57
2022/01/11 11:57:33;;;;;;;16.00;11.88;;;4.70;99.90;;;;;;5030358;28;20033;-56
2022/01/11 12:00:05;;;;;;;18.08;11.77;;;4.80;99.90;;;;;;5030776;28;20014;-57
2022/01/11 12:02:48;;;;;;;19.65;11.73;;;4.90;99.90;;;;;;5030287;28;20060;-53
2022/01/11 12:05:44;;;;;;;19.77;10.88;;;5.20;99.90;;;;;;5030384;28;20029;-56
2022/01/11 12:08:38;;;;;;;18.98;9.77;;;5.60;99.10;;;;;;5030757;28;20040;-55
2022/01/11 12:11:04;;;;;;;19.35;8.95;;;6.50;96.30;;;;;;5030424;28;20022;-57
2022/01/11 12:13:43;;;;;;;23.83;11.13;;;6.60;94.40;;;;;;5030160;28;20037;-54
2022/01/11 12:16:23;;;;;;;14.98;9.52;;;6.40;94.50;;;;;;5030170;28;20045;-57
2022/01/11 12:19:00;;;;;;;11.98;9.00;;;5.90;94.80;;;;;;5030181;28;20051;-56
2022/01/11 12:21:37;;;;;;;15.80;10.02;;;5.50;95.30;;;;;;5030397;28;20431;-58
2022/01/11 12:24:03;;;;;;;15.43;9.98;;;5.50;96.90;;;;;;5030386;28;20025;-55
2022/01/11 12:26:34;;;;;;;15.75;10.90;;;5.50;97.20;;;;;;5029963;28;20032;-56
2022/01/11 12:29:02;;;;;;;16.98;11.10;;;5.20;98.40;;;;;;5030131;28;20029;-57
2022/01/11 12:31:30;;;;;;;27.23;12.05;;;4.90;98.30;;;;;;5030076;28;20100;-57
2022/01/11 12:33:56;;;;;;;15.98;11.05;;;4.70;99.50;;;;;;5030307;28;20026;-55
2022/01/11 12:36:22;;;;;;;16.20;11.65;;;4.40;99.90;;;;;;5030167;28;20484;-55
2022/01/11 12:39:05;;;;;;;14.88;10.23;;;4.30;99.90;;;;;;5030092;28;20037;-56
2022/01/11 12:41:33;;;;;;;24.48;12.77;;;4.20;99.90;;;;;;5029994;28;20022;-56
2022/01/11 12:44:26;;;;;;;21.80;12.43;;;4.10;99.90;;;;;;5030124;28;20108;-56
2022/01/11 12:46:59;;;;;;;26.48;12.85;;;4.00;99.90;;;;;;5029876;28;20025;-57